Lee Mont, Virginia
Current Conditions -  °F | °C
As of 6:55 AM on Tuesday 21 Oct 2014 (Local Time) from KMFV Reporting Station
Light Rain Light Rain  
Wind Chill: 57°   Ceiling: 11000
Heat Index: 57°   Visibility: 10mi
Dew Point: 54°   Wind: 6mph
Humidity: 88%   Direction: 190°S
Pressure: 29.89"   Gusts: NA
Location:  37.779°N, 75.6343°W
Report Text: KMFV 211055Z AUTO 19005KT 10SM -RA BKN110 14/12 A2989 RMK AO2
Loading
Personal Weather Stations






























Interactive Weather Map
Tropical Storm Tracking
New forecast layout! Learn more

10-Day Weather Forecast

Advertisements
Track Severe Weather on mobile